Ana Sayfa
METAR-TAF:

METAR-TAF

Havaalanları :

Tarakan, Endonezya

Enlem: 03-19-36N, Boylam: 117-33-56E, yükseklik: 6 m

METAR: eksik

Saat: 17:05 (10:05 UTC)

Tahmin

Rapor saat 05:00 UTC de 5 saat ve 5 dakika önce yapıldı.
Ayın 28'si saat 06 UTC'den ayın 28'si saat 18 UTC'ye kadar geçerli Tahmin
Rüzgar kuzeydan kt
Görüş mesafesi 10 km veya daha fazla
1500 ft yükseklikte parçalı çok bulutlu
Dönüşüyor
ayın 28'si saat 06 UTC'den ayın 28'si saat 08 UTC'ye kadar
1500 ft yükseklikte parçalı bulutlu

TAF: WAQQ 280500Z 2806/2818 00000KT 9999 BKN015 BECMG 2806/2808 SCT015

4.000'den fazla havaalanı için hava durumu gözlemleri ve tahminleri (METAR ve TAF raporları).

Kullanılabilir istasyonlar harita üzerinde sarı ve kırmızı noktalarla gösterilir.

İstasyonun adını görmek için fareyi noktanın üzerinde gezdirin.

Sonrasında hava gözlem ve tahminlerini görmek için tıklayın.

Haritayı değiştirmek için: yaklaştırmak için siyah artı işaretli yeşil düğmeye ve uzaklaştırmak için de eksi işaretli düğmeye hızla tıklayın; bitişik haritalar için yeşil okları kullanın.


METAR-TAF: